createdAt,value
2023-05-04T00:12:03.904Z,100705.38
2023-05-04T00:13:08.313Z,100708.13
2023-05-04T00:14:15.070Z,100710.41
2023-05-04T00:15:25.838Z,100707.44
2023-05-04T00:20:27.331Z,100713.63
2023-05-04T00:21:41.179Z,100711.25
2023-05-04T00:22:46.966Z,100715.25
2023-05-04T01:37:13.557Z,100740.16
2023-05-04T02:53:31.445Z,100803.31
2023-05-04T02:55:02.666Z,100799.28
2023-05-04T02:56:16.139Z,100803.13
2023-05-04T03:01:07.553Z,100812.44
2023-05-04T03:06:02.382Z,100808.84
2023-05-04T03:07:34.630Z,100810.16
2023-05-04T03:08:39.196Z,100810.75
2023-05-04T03:09:47.952Z,100816.78
2023-05-04T03:10:53.999Z,100819.19
2023-05-04T03:15:42.375Z,100811.13
2023-05-04T03:20:46.274Z,100813.16
2023-05-04T03:25:50.458Z,100820.34
2023-05-04T07:16:07.142Z,100869.63
2023-05-04T07:17:14.146Z,100876.06
2023-05-04T07:18:16.403Z,100868.16
2023-05-04T07:19:18.478Z,100874.78
2023-05-04T07:20:25.711Z,100866.13
2023-05-04T07:21:29.527Z,100870.59
2023-05-04T07:22:32.618Z,100867.06
2023-05-04T07:23:34.491Z,100867.69
2023-05-04T07:24:36.598Z,100876.03
2023-05-04T07:25:38.908Z,100858.22
2023-05-04T07:26:40.739Z,100872.06
2023-05-04T07:27:45.117Z,100867.94
2023-05-04T07:28:47.113Z,100864.94
2023-05-04T07:29:51.100Z,100868.22
2023-05-04T07:30:53.503Z,100859.78
2023-05-04T07:31:55.922Z,100865.69
2023-05-04T07:32:57.832Z,100854.66
2023-05-04T07:33:59.762Z,100861.09
2023-05-04T07:35:01.716Z,100856.03
2023-05-04T07:36:05.506Z,100851.72
2023-05-04T07:37:15.025Z,100855.00
2023-05-04T07:38:16.934Z,100848.56
2023-05-04T07:39:18.898Z,100854.56
2023-05-04T07:40:21.575Z,100853.47
2023-05-04T07:41:43.169Z,100853.06
2023-05-04T07:42:45.230Z,100856.31
2023-05-04T07:43:47.155Z,100853.94
2023-05-04T07:44:49.335Z,100846.25
2023-05-04T07:45:53.589Z,100845.94
2023-05-04T07:46:55.535Z,100840.09
2023-05-04T07:47:57.521Z,100847.13
2023-05-04T07:48:59.393Z,100835.66
2023-05-04T07:50:01.365Z,100840.28
2023-05-04T07:51:03.587Z,100835.38
2023-05-04T07:52:12.835Z,100837.50
2023-05-04T07:53:20.170Z,100844.34
2023-05-04T07:54:31.576Z,100832.19
2023-05-04T07:55:33.530Z,100847.19
2023-05-04T07:56:45.224Z,100841.63
2023-05-04T07:57:48.518Z,100842.41
2023-05-04T07:58:56.796Z,100833.44
2023-05-04T08:00:19.304Z,100848.13
2023-05-04T08:01:26.263Z,100835.31
2023-05-04T08:02:28.124Z,100838.00
2023-05-04T08:03:44.251Z,100839.81
2023-05-04T08:04:48.262Z,100837.41
2023-05-04T08:05:55.746Z,100841.03
2023-05-04T08:06:58.077Z,100840.88
2023-05-04T08:08:00.064Z,100840.19
2023-05-04T08:09:06.336Z,100837.34
2023-05-04T08:10:09.093Z,100832.63
2023-05-04T08:11:20.145Z,100830.47
2023-05-04T08:12:32.067Z,100822.59
2023-05-04T08:14:10.404Z,100832.25
2023-05-04T08:15:17.662Z,100831.19
2023-05-04T08:16:19.983Z,100830.69
2023-05-04T08:17:26.357Z,100835.97
2023-05-04T08:18:29.482Z,100836.50
2023-05-04T08:19:31.285Z,100827.38
2023-05-04T08:20:33.380Z,100831.94
2023-05-04T08:21:35.743Z,100839.56
2023-05-04T08:22:38.766Z,100828.38
2023-05-04T08:23:40.680Z,100828.84
2023-05-04T08:24:42.639Z,100833.84
2023-05-04T08:25:44.539Z,100825.66
2023-05-04T08:26:52.685Z,100824.47
2023-05-04T08:28:09.905Z,100821.34
2023-05-04T08:29:11.759Z,100816.69
2023-05-04T08:30:13.959Z,100823.09
2023-05-04T08:31:19.187Z,100821.75
2023-05-04T08:32:21.012Z,100817.63
2023-05-04T08:33:23.316Z,100815.50
2023-05-04T08:34:25.248Z,100812.88
2023-05-04T08:35:28.021Z,100812.44
2023-05-04T08:36:30.724Z,100817.47
2023-05-04T08:37:32.765Z,100812.38
2023-05-04T08:38:34.882Z,100817.03
2023-05-04T08:39:41.252Z,100816.03
2023-05-04T08:40:43.794Z,100816.75
2023-05-04T08:41:48.373Z,100805.66
2023-05-04T08:42:53.665Z,100811.56
2023-05-04T08:43:55.580Z,100801.66
2023-05-04T08:44:59.456Z,100808.91
2023-05-04T08:46:02.999Z,100804.00
2023-05-04T08:47:13.324Z,100812.09
2023-05-04T08:48:15.547Z,100807.94
2023-05-04T08:49:18.894Z,100803.44
2023-05-04T08:50:29.367Z,100797.50
2023-05-04T08:51:35.248Z,100791.88
2023-05-04T08:52:40.607Z,100799.28
2023-05-04T08:53:53.550Z,100802.03
2023-05-04T08:54:58.560Z,100788.47
2023-05-04T08:56:04.390Z,100791.75
2023-05-04T08:57:06.489Z,100800.81
2023-05-04T08:58:17.505Z,100794.00
2023-05-04T08:59:21.261Z,100798.03
2023-05-04T09:00:23.510Z,100793.50
2023-05-04T09:01:38.019Z,100791.84
2023-05-04T09:02:40.627Z,100790.09
2023-05-04T09:03:52.163Z,100796.00
2023-05-04T09:04:55.468Z,100791.81
2023-05-04T09:06:00.358Z,100790.25
2023-05-04T09:07:03.514Z,100797.88
2023-05-04T09:08:06.769Z,100805.06
2023-05-04T09:09:10.133Z,100788.63
2023-05-04T09:10:12.170Z,100788.56
2023-05-04T09:11:21.784Z,100792.16
2023-05-04T09:12:27.366Z,100784.53
2023-05-04T09:13:29.394Z,100787.88
2023-05-04T09:14:36.475Z,100781.34
2023-05-04T09:15:38.604Z,100781.59
2023-05-04T09:16:46.480Z,100783.09
2023-05-04T09:17:57.746Z,100777.72
2023-05-04T09:19:04.694Z,100778.63
2023-05-04T09:20:08.009Z,100773.72
2023-05-04T09:21:11.534Z,100781.50
2023-05-04T09:22:28.256Z,100778.78
2023-05-04T09:23:33.407Z,100783.97
2023-05-04T09:24:35.612Z,100781.75
2023-05-04T09:26:09.088Z,100781.34
2023-05-04T09:27:16.018Z,100771.97
2023-05-04T09:28:20.464Z,100777.22
2023-05-04T09:29:25.651Z,100780.91
2023-05-04T09:30:28.275Z,100777.81
2023-05-04T09:31:45.471Z,100782.19
2023-05-04T09:32:49.657Z,100778.34
2023-05-04T09:33:53.524Z,100778.38
2023-05-04T09:34:55.817Z,100787.91
2023-05-04T09:36:00.239Z,100782.84
2023-05-04T09:37:05.224Z,100776.50
2023-05-04T09:38:07.657Z,100777.22
2023-05-04T09:39:13.712Z,100775.88
2023-05-04T09:40:15.965Z,100774.03
2023-05-04T09:41:18.421Z,100774.13
2023-05-04T09:42:24.012Z,100774.69
2023-05-04T09:43:41.812Z,100766.91
2023-05-04T09:45:02.591Z,100766.00
2023-05-04T09:46:16.221Z,100770.09
2023-05-04T09:47:18.875Z,100766.88
2023-05-04T09:48:27.458Z,100768.03
2023-05-04T09:49:34.254Z,100772.94
2023-05-04T09:50:38.122Z,100760.16
2023-05-04T09:51:43.036Z,100762.69
2023-05-04T09:52:49.920Z,100762.38
2023-05-04T09:53:52.819Z,100755.88
2023-05-04T09:54:56.671Z,100753.19
2023-05-04T09:56:39.059Z,100758.56
2023-05-04T09:57:42.756Z,100760.78
2023-05-04T09:58:46.369Z,100766.28
2023-05-04T09:59:49.224Z,100757.72
2023-05-04T10:00:54.828Z,100762.34
2023-05-04T10:02:00.412Z,100761.91
2023-05-04T10:03:07.206Z,100745.91
2023-05-04T10:04:09.564Z,100757.22
2023-05-04T10:05:18.291Z,100758.00
2023-05-04T10:06:33.145Z,100755.78
2023-05-04T10:07:35.823Z,100751.41
2023-05-04T10:08:38.794Z,100744.91
2023-05-04T10:12:17.475Z,100751.50
2023-05-04T10:20:52.652Z,100746.47
2023-05-04T11:48:31.879Z,100676.34
2023-05-04T11:50:53.738Z,100659.97
2023-05-04T12:18:12.650Z,100655.84
2023-05-04T13:02:02.155Z,100626.63
2023-05-04T13:08:42.006Z,100620.69
2023-05-04T13:33:37.041Z,100590.25
2023-05-04T13:39:03.624Z,100594.09
2023-05-04T13:44:22.311Z,100591.88
2023-05-04T13:46:40.723Z,100593.09
2023-05-04T14:10:51.925Z,100592.25
2023-05-04T14:20:31.655Z,100578.13
2023-05-04T14:24:07.182Z,100574.56
2023-05-04T14:25:24.065Z,100575.69
2023-05-04T14:29:21.732Z,100569.94
2023-05-04T15:35:47.083Z,100521.81
2023-05-04T15:45:48.828Z,100515.94
2023-05-04T22:59:26.976Z,100420.47
2023-05-04T23:00:30.650Z,100410.97
2023-05-04T23:01:33.343Z,100412.63
2023-05-04T23:02:38.917Z,100406.31
2023-05-04T23:04:35.823Z,100408.03
2023-05-04T23:05:44.813Z,100410.81
2023-05-04T23:06:51.212Z,100406.06
2023-05-04T23:07:53.950Z,100412.13
